CheckWX is a tool to help pilots better visualize weather data.  It is not intended as a substitute for an official pre-flight weather briefing.

21:07:11 UTC

KNUW METAR
Whidbey Island NAS / Ault Field Airport
Oak Harbor, Washington, USA
Current

11 mins ago

KNUW 232056Z 28005KT 9SM FEW000 FEW004 SCT035 SCT250 14/11 A3000 RMK AO2 SLP158 VIS W-N 3/4 FG FEW000 FG BANK W-N T01440106 57021
Observed
May-23 @ 20:56 UTC
Wind
  • 280° at 5 KTS
Visibility
9 SM
Flight Rules
VFR
Cloud Levels
  • Few
  • Few at 400' AGL
  • Scattered at 3,500' AGL
  • Scattered at 25,000' AGL
Temperature
14°C / 57°F
Dewpoint
11°C / 52°F
Humidity
82%
Altimeter
30" Hg
Pressure
1015.92 hPa
Previous

1 hour ago

KNUW 231956Z 27007KT 9SM FEW000 FEW025 SCT250 13/10 A3002 RMK AO2 SLP164 VIS W-N 3/4 FG FEW000 FG BANK W-N T01330100
Observed
May-23 @ 19:56 UTC
Wind
  • 270° at 7 KTS
Visibility
9 SM
Flight Rules
VFR
Cloud Levels
  • Few
  • Few at 2,500' AGL
  • Scattered at 25,000' AGL
Temperature
13°C / 55°F
Dewpoint
10°C / 50°F
Humidity
82%
Altimeter
30.02" Hg
Pressure
1016.62 hPa
Previous

2 hours ago

KNUW 231856Z 28007KT 7SM FEW000 SCT007 13/10 A3005 RMK AO2 SLP173 VIS W-N 1/2 FG FEW000 FG BANK W-N T01330100
Observed
May-23 @ 18:56 UTC
Wind
  • 280° at 7 KTS
Visibility
7 SM
Flight Rules
VFR
Cloud Levels
  • Few
  • Scattered at 700' AGL
Temperature
13°C / 55°F
Dewpoint
10°C / 50°F
Humidity
82%
Altimeter
30.05" Hg
Pressure
1017.62 hPa